Time;durP1;ratioP1;P1;durP2;ratioP2;P2;SDS_P1;SDS_P2;PMS_P1;PMS_P2;Temp;Humidity;BMP_temperature;BMP_pressure;BME280_temperature;BME280_humidity;BME280_pressure;Samples;Min_cycle;Max_cycle;Signal;HPM_P1;HPM_P2
2021/03/12 00:01:29;;;;;;;14.30;10.18;;;11.90;99.90;;;;;;4955549;28;20027;-76
2021/03/12 00:03:55;;;;;;;19.17;10.82;;;11.90;99.90;;;;;;4953861;29;20027;-76
2021/03/12 00:06:21;;;;;;;22.13;10.27;;;11.90;99.90;;;;;;4957755;28;20037;-79
2021/03/12 00:08:47;;;;;;;17.17;10.80;;;11.80;99.90;;;;;;4956135;29;20051;-77
2021/03/12 00:11:14;;;;;;;19.10;9.27;;;11.90;99.90;;;;;;4954151;28;20062;-77
2021/03/12 00:13:41;;;;;;;22.17;10.40;;;11.80;99.90;;;;;;4957413;28;20081;-75
2021/03/12 00:16:07;;;;;;;18.67;10.07;;;11.80;99.90;;;;;;4955364;29;20059;-77
2021/03/12 00:18:42;;;;;;;13.02;9.73;;;11.70;99.90;;;;;;4959930;28;20050;-76
2021/03/12 00:21:09;;;;;;;16.67;9.82;;;11.70;99.90;;;;;;4950332;29;20023;-75
2021/03/12 00:23:38;;;;;;;14.80;10.95;;;11.60;99.90;;;;;;4955808;28;20115;-77
2021/03/12 00:26:05;;;;;;;11.25;9.05;;;11.60;99.90;;;;;;4955174;28;20078;-77
2021/03/12 00:28:31;;;;;;;17.52;10.13;;;11.60;99.90;;;;;;4946359;28;20020;-76
2021/03/12 00:30:57;;;;;;;13.15;9.93;;;11.50;99.90;;;;;;4958390;28;20034;-76
2021/03/12 00:33:26;;;;;;;13.35;10.00;;;11.40;99.90;;;;;;4957742;28;20397;-78
2021/03/12 00:35:52;;;;;;;15.00;10.23;;;11.40;99.90;;;;;;4954775;28;20106;-76
2021/03/12 00:38:18;;;;;;;20.85;10.38;;;11.30;99.90;;;;;;4955274;28;20056;-77
2021/03/12 00:41:01;;;;;;;15.73;10.07;;;11.30;99.90;;;;;;4952130;28;20023;-76
2021/03/12 00:43:27;;;;;;;18.13;10.05;;;11.30;99.90;;;;;;4944199;28;20384;-75
2021/03/12 00:46:00;;;;;;;13.00;10.60;;;11.40;99.90;;;;;;4940430;28;20043;-75
2021/03/12 00:48:27;;;;;;;17.55;11.70;;;11.30;99.90;;;;;;4957071;28;20035;-76
2021/03/12 00:50:53;;;;;;;17.25;11.30;;;11.30;99.90;;;;;;4965022;28;20058;-75
2021/03/12 00:53:21;;;;;;;15.32;11.60;;;11.30;99.90;;;;;;4974120;28;20027;-76
2021/03/12 00:55:47;;;;;;;17.13;11.45;;;11.30;99.90;;;;;;4967894;28;20122;-75
2021/03/12 00:58:14;;;;;;;17.40;11.93;;;11.20;99.90;;;;;;4953745;28;20058;-75
2021/03/12 01:00:40;;;;;;;19.55;11.82;;;11.10;99.90;;;;;;4961253;28;20054;-76
2021/03/12 01:03:10;;;;;;;20.67;12.75;;;11.00;99.90;;;;;;4952122;28;20497;-76
2021/03/12 01:05:36;;;;;;;15.07;12.50;;;10.90;99.90;;;;;;4942221;28;20027;-76
2021/03/12 01:08:02;;;;;;;19.67;12.90;;;10.90;99.90;;;;;;4957244;28;20061;-77
2021/03/12 01:10:28;;;;;;;18.75;12.32;;;10.90;99.90;;;;;;4961034;28;20038;-76
2021/03/12 01:13:06;;;;;;;24.38;13.25;;;10.80;99.90;;;;;;4951258;28;20109;-76
2021/03/12 01:15:32;;;;;;;15.75;11.05;;;10.90;99.90;;;;;;4957758;28;20035;-77
2021/03/12 01:17:58;;;;;;;21.70;12.25;;;11.00;99.90;;;;;;4957839;28;20027;-77
2021/03/12 01:20:29;;;;;;;14.32;10.93;;;11.00;99.90;;;;;;4961903;28;20089;-76
2021/03/12 01:22:56;;;;;;;19.88;12.40;;;11.00;99.90;;;;;;4958936;28;20054;-76
2021/03/12 01:25:29;;;;;;;18.65;10.98;;;11.00;99.90;;;;;;4966910;28;20038;-76
2021/03/12 01:27:55;;;;;;;25.35;12.02;;;11.00;99.90;;;;;;4959493;28;20019;-73
2021/03/12 01:30:31;;;;;;;17.20;11.15;;;10.90;99.90;;;;;;4952027;28;20030;-76
2021/03/12 01:32:57;;;;;;;18.17;12.25;;;10.90;99.90;;;;;;4968808;28;20074;-76
2021/03/12 01:35:23;;;;;;;14.68;12.45;;;10.80;99.90;;;;;;4969460;28;20023;-76
2021/03/12 01:37:49;;;;;;;20.00;12.68;;;10.90;99.90;;;;;;4952472;28;20023;-76
2021/03/12 01:40:19;;;;;;;14.65;11.25;;;10.90;99.90;;;;;;4962829;28;20028;-76
2021/03/12 01:42:45;;;;;;;20.38;11.32;;;11.00;99.90;;;;;;4958758;28;20032;-76
2021/03/12 01:45:17;;;;;;;20.23;11.65;;;11.00;99.90;;;;;;4963693;28;20034;-76
2021/03/12 01:47:43;;;;;;;25.52;13.27;;;11.00;99.90;;;;;;4965037;28;20396;-73
2021/03/12 01:50:09;;;;;;;18.85;12.02;;;11.00;99.90;;;;;;4950735;28;20032;-76
2021/03/12 01:52:36;;;;;;;15.02;11.30;;;11.00;99.90;;;;;;4964360;28;20251;-77
2021/03/12 01:55:04;;;;;;;15.63;11.75;;;11.00;99.90;;;;;;4952359;28;20027;-76
2021/03/12 01:57:30;;;;;;;17.73;11.43;;;11.10;99.90;;;;;;4978761;28;20110;-76
2021/03/12 01:59:56;;;;;;;16.10;13.35;;;11.00;99.90;;;;;;4960795;28;20054;-76
2021/03/12 02:02:22;;;;;;;20.77;13.65;;;11.00;99.90;;;;;;4967450;28;20385;-75
2021/03/12 02:04:48;;;;;;;21.30;13.88;;;11.00;99.90;;;;;;4958359;28;20038;-76
2021/03/12 02:07:13;;;;;;;18.08;13.98;;;11.00;99.90;;;;;;4962000;28;20060;-75
2021/03/12 02:09:40;;;;;;;16.05;11.90;;;11.00;99.90;;;;;;4961504;28;20031;-76
2021/03/12 02:12:16;;;;;;;20.13;12.63;;;11.10;99.90;;;;;;4951913;28;20039;-77
2021/03/12 02:15:03;;;;;;;14.48;11.63;;;11.20;99.90;;;;;;4967123;28;20030;-76
2021/03/12 02:18:26;;;;;;;;;;;;;;;;;;;;;
2021/03/12 02:28:53;;;;;;;;;;;;;;;;;;;;;
2021/03/12 02:37:39;;;;;;;25.73;16.63;;;10.90;99.90;;;;;;4979029;28;20401;-77
2021/03/12 02:40:07;;;;;;;24.92;17.35;;;10.80;99.90;;;;;;4974892;28;20089;-76
2021/03/12 02:42:35;;;;;;;36.10;18.08;;;10.80;99.90;;;;;;4977071;28;20023;-76
2021/03/12 02:45:04;;;;;;;28.73;21.05;;;10.80;99.90;;;;;;4965483;28;20031;-76
2021/03/12 02:47:31;;;;;;;29.35;23.40;;;10.90;99.90;;;;;;4975858;28;20034;-76
2021/03/12 02:49:59;;;;;;;34.85;24.38;;;10.90;99.90;;;;;;4966533;28;20031;-76
2021/03/12 02:52:26;;;;;;;33.17;24.80;;;10.90;99.90;;;;;;4973016;28;20049;-76
2021/03/12 02:54:53;;;;;;;46.53;27.35;;;10.90;99.90;;;;;;4973529;28;20030;-76
2021/03/12 02:57:22;;;;;;;38.28;27.58;;;10.80;99.90;;;;;;4966861;28;20410;-76
2021/03/12 02:59:51;;;;;;;34.38;28.42;;;10.80;99.90;;;;;;4970943;28;20031;-76
2021/03/12 03:02:27;;;;;;;33.20;26.77;;;10.70;99.90;;;;;;4971190;28;20027;-76
2021/03/12 03:04:55;;;;;;;38.53;28.50;;;10.80;99.90;;;;;;4973032;28;20447;-76
2021/03/12 03:07:22;;;;;;;39.83;28.65;;;10.70;99.90;;;;;;4972634;28;20023;-76
2021/03/12 03:09:58;;;;;;;35.13;30.00;;;10.70;99.90;;;;;;4972897;28;20030;-79
2021/03/12 03:12:26;;;;;;;37.35;27.20;;;10.70;99.90;;;;;;4974445;28;20035;-76
2021/03/12 03:15:05;;;;;;;39.33;27.40;;;10.70;99.90;;;;;;4969590;28;20492;-77
2021/03/12 03:17:35;;;;;;;38.60;27.05;;;10.80;99.90;;;;;;4962721;28;20085;-76
2021/03/12 03:20:01;;;;;;;41.22;25.63;;;10.80;99.90;;;;;;4974470;28;20027;-76
2021/03/12 03:22:27;;;;;;;32.13;24.65;;;10.80;99.90;;;;;;4975879;28;20034;-76
2021/03/12 03:24:54;;;;;;;35.85;26.05;;;10.70;99.90;;;;;;4970527;28;20506;-76
2021/03/12 03:27:20;;;;;;;39.65;28.10;;;10.60;99.90;;;;;;4963770;28;20114;-77
2021/03/12 03:29:46;;;;;;;39.08;26.45;;;10.60;99.90;;;;;;4965761;28;20030;-77
2021/03/12 03:32:14;;;;;;;29.83;22.80;;;10.60;99.90;;;;;;4967480;28;20520;-77
2021/03/12 03:34:41;;;;;;;29.40;22.88;;;10.70;99.90;;;;;;4970922;28;20070;-76
2021/03/12 03:37:07;;;;;;;20.85;18.70;;;10.60;99.90;;;;;;4964987;28;20021;-76
2021/03/12 03:39:32;;;;;;;24.85;19.33;;;10.60;99.90;;;;;;4971464;28;20385;-76
2021/03/12 03:42:02;;;;;;;25.48;16.45;;;10.60;99.90;;;;;;4964137;28;20042;-76
2021/03/12 03:44:30;;;;;;;24.05;16.52;;;10.60;99.90;;;;;;4971574;28;20412;-77
2021/03/12 03:46:59;;;;;;;26.48;16.10;;;10.60;99.90;;;;;;4969426;28;20058;-77
2021/03/12 03:50:06;;;;;;;21.58;14.02;;;10.60;99.90;;;;;;4966795;28;20366;-76
2021/03/12 03:52:32;;;;;;;24.27;14.80;;;10.60;99.90;;;;;;4970615;28;20034;-76
2021/03/12 03:54:59;;;;;;;21.58;14.20;;;10.60;99.90;;;;;;4968021;28;20030;-76
2021/03/12 03:57:26;;;;;;;17.65;13.30;;;10.60;99.90;;;;;;4964109;28;20745;-76
2021/03/12 03:59:52;;;;;;;17.08;12.02;;;10.70;99.90;;;;;;4971891;28;20050;-76
2021/03/12 04:02:19;;;;;;;24.50;11.10;;;10.70;99.90;;;;;;4964941;28;20034;-75
2021/03/12 04:04:47;;;;;;;16.25;10.35;;;10.70;99.90;;;;;;4972500;28;20509;-76
2021/03/12 04:07:17;;;;;;;21.65;9.27;;;10.90;99.90;;;;;;4974294;28;20500;-76
2021/03/12 04:09:43;;;;;;;14.68;9.48;;;10.90;99.90;;;;;;4974516;28;20386;-76
2021/03/12 04:12:13;;;;;;;21.27;11.43;;;10.90;99.90;;;;;;4973970;28;20466;-77
2021/03/12 04:14:41;;;;;;;17.40;9.15;;;10.80;99.90;;;;;;4974682;28;20027;-79
2021/03/12 04:17:07;;;;;;;20.08;10.90;;;10.80;99.90;;;;;;4969755;28;20041;-75
2021/03/12 04:19:33;;;;;;;20.13;11.45;;;10.80;99.90;;;;;;4976249;28;20030;-75
2021/03/12 04:22:00;;;;;;;14.57;10.27;;;10.80;99.90;;;;;;4966895;28;20015;-76
2021/03/12 04:24:33;;;;;;;19.30;10.55;;;10.80;99.90;;;;;;4990661;28;20023;-76
2021/03/12 04:27:00;;;;;;;22.98;11.63;;;10.70;99.90;;;;;;4975605;28;20457;-77
2021/03/12 04:29:27;;;;;;;22.42;10.60;;;10.80;99.90;;;;;;4968385;28;20081;-77
2021/03/12 04:31:53;;;;;;;20.67;12.18;;;10.70;99.90;;;;;;4968376;28;20061;-79
2021/03/12 04:34:19;;;;;;;18.95;11.30;;;10.70;99.90;;;;;;4974159;28;20460;-75
2021/03/12 04:36:46;;;;;;;22.35;11.63;;;10.70;99.90;;;;;;4967872;28;20409;-74
2021/03/12 04:39:13;;;;;;;21.45;11.10;;;10.70;99.90;;;;;;4969363;28;20030;-76
2021/03/12 04:42:26;;;;;;;20.33;10.70;;;10.70;99.90;;;;;;4970733;28;20030;-76
2021/03/12 04:45:10;;;;;;;20.27;11.80;;;10.70;99.90;;;;;;4960586;28;20151;-76
2021/03/12 04:50:54;;;;;;;14.80;12.18;;;10.50;99.90;;;;;;4955428;28;20102;-76
2021/03/12 04:53:20;;;;;;;17.15;12.32;;;10.50;99.90;;;;;;4970042;28;20363;-74
2021/03/12 04:55:48;;;;;;;25.98;13.35;;;10.50;99.90;;;;;;4971876;28;20030;-81
2021/03/12 04:58:14;;;;;;;22.70;13.48;;;10.50;99.90;;;;;;4980524;28;20030;-77
2021/03/12 05:00:46;;;;;;;22.17;12.90;;;10.60;99.90;;;;;;4977720;28;20023;-77
2021/03/12 05:03:14;;;;;;;18.42;12.13;;;10.50;99.90;;;;;;4976912;28;20057;-80
2021/03/12 05:05:41;;;;;;;22.45;13.60;;;10.50;99.90;;;;;;4974720;28;20041;-75
2021/03/12 05:08:09;;;;;;;22.98;11.90;;;10.50;99.90;;;;;;4967499;28;20043;-77
2021/03/12 05:10:35;;;;;;;21.85;13.40;;;10.50;99.90;;;;;;4975839;28;20082;-77
2021/03/12 05:13:03;;;;;;;20.00;12.50;;;10.60;99.90;;;;;;4981814;28;20031;-76
2021/03/12 05:15:29;;;;;;;25.08;12.07;;;10.70;99.90;;;;;;4970641;28;20097;-75
2021/03/12 05:17:56;;;;;;;18.63;11.68;;;10.80;99.90;;;;;;4978002;28;20038;-76
2021/03/12 05:20:29;;;;;;;20.52;11.45;;;10.70;99.90;;;;;;4977796;28;20421;-75
2021/03/12 05:22:55;;;;;;;20.67;11.85;;;10.70;99.90;;;;;;4978422;28;20104;-78
2021/03/12 05:25:24;;;;;;;21.85;10.02;;;10.80;99.90;;;;;;4976055;28;20046;-76
2021/03/12 05:27:53;;;;;;;24.20;9.95;;;10.70;99.90;;;;;;4971167;28;20417;-76
2021/03/12 05:30:22;;;;;;;14.80;10.77;;;10.70;99.90;;;;;;4976895;28;20473;-77
2021/03/12 05:32:48;;;;;;;27.17;12.77;;;10.70;99.90;;;;;;4975429;28;20064;-77
2021/03/12 05:35:13;;;;;;;19.10;10.68;;;10.80;99.90;;;;;;4978530;28;20586;-77
2021/03/12 05:37:39;;;;;;;22.45;12.13;;;10.80;99.90;;;;;;4979534;28;20061;-79
2021/03/12 05:40:06;;;;;;;22.73;11.68;;;10.90;99.90;;;;;;4975938;28;20161;-77
2021/03/12 05:42:33;;;;;;;16.80;10.70;;;10.80;99.90;;;;;;4978772;28;20058;-77
2021/03/12 05:45:00;;;;;;;17.38;11.10;;;10.80;99.90;;;;;;4977198;28;20583;-77
2021/03/12 05:47:26;;;;;;;18.15;10.15;;;10.90;99.90;;;;;;4995552;28;20122;-77
2021/03/12 05:49:54;;;;;;;16.42;10.35;;;10.70;99.90;;;;;;4973739;28;20130;-77
2021/03/12 05:52:21;;;;;;;13.50;9.95;;;10.80;99.90;;;;;;4980382;28;20050;-76
2021/03/12 05:54:48;;;;;;;25.15;11.77;;;10.80;99.90;;;;;;4979829;28;20027;-76
2021/03/12 05:57:14;;;;;;;18.88;10.82;;;10.80;99.90;;;;;;4975948;28;20082;-75
2021/03/12 05:59:43;;;;;;;20.80;10.90;;;10.90;99.90;;;;;;4968136;28;20023;-76
2021/03/12 06:02:12;;;;;;;21.48;10.75;;;10.90;99.90;;;;;;4964079;28;20506;-76
2021/03/12 06:04:38;;;;;;;25.45;11.48;;;10.90;99.90;;;;;;4973511;28;20069;-77
2021/03/12 06:07:04;;;;;;;18.90;10.85;;;10.90;99.90;;;;;;4971478;28;20027;-76
2021/03/12 06:09:30;;;;;;;19.75;11.38;;;11.00;99.90;;;;;;4980236;28;20034;-77
2021/03/12 06:11:56;;;;;;;25.30;11.30;;;11.00;99.90;;;;;;4980786;28;20034;-77
2021/03/12 06:14:55;;;;;;;29.05;12.43;;;11.00;99.90;;;;;;4979920;28;20026;-77
2021/03/12 06:17:43;;;;;;;18.10;10.30;;;11.00;99.90;;;;;;4970548;28;20033;-76
2021/03/12 06:20:13;;;;;;;18.65;9.52;;;11.00;99.90;;;;;;4977822;28;20085;-76
2021/03/12 06:23:08;;;;;;;22.67;11.43;;;11.00;99.90;;;;;;4974010;28;20025;-76
2021/03/12 06:25:35;;;;;;;15.00;10.50;;;11.00;99.90;;;;;;4947744;28;20052;-77
2021/03/12 06:28:14;;;;;;;19.63;9.55;;;11.00;99.90;;;;;;4975473;28;20019;-75
2021/03/12 06:30:41;;;;;;;24.08;12.00;;;11.10;99.90;;;;;;4992970;28;20031;-76
2021/03/12 06:33:07;;;;;;;18.60;11.38;;;11.10;99.90;;;;;;4968075;28;20047;-76
2021/03/12 06:35:38;;;;;;;17.65;9.00;;;11.20;99.90;;;;;;4973440;28;20117;-78
2021/03/12 06:38:09;;;;;;;28.00;10.88;;;11.20;99.90;;;;;;4975409;28;20022;-76
2021/03/12 06:40:40;;;;;;;24.10;14.15;;;11.20;99.90;;;;;;4978572;28;20417;-77
2021/03/12 06:43:16;;;;;;;27.60;11.52;;;11.30;99.90;;;;;;4970524;28;20169;-76
2021/03/12 06:45:42;;;;;;;21.90;11.77;;;11.30;99.90;;;;;;4966274;28;20025;-76
2021/03/12 06:48:19;;;;;;;21.88;12.02;;;11.40;99.90;;;;;;4966422;28;20052;-77
2021/03/12 06:50:45;;;;;;;17.30;10.23;;;11.50;99.90;;;;;;4970304;28;20042;-77
2021/03/12 06:53:38;;;;;;;25.65;11.63;;;11.50;99.90;;;;;;4980104;28;20023;-77
2021/03/12 06:56:11;;;;;;;20.17;10.73;;;11.50;99.90;;;;;;4975729;28;20046;-77
2021/03/12 06:58:37;;;;;;;19.73;10.60;;;11.60;99.90;;;;;;4978746;28;20555;-76
2021/03/12 07:01:21;;;;;;;20.70;12.50;;;11.70;99.90;;;;;;4974138;28;20041;-76
2021/03/12 07:03:47;;;;;;;23.27;10.60;;;11.80;99.90;;;;;;4972343;28;20394;-77
2021/03/12 07:06:18;;;;;;;23.10;12.52;;;11.80;99.90;;;;;;4971369;28;20027;-76
2021/03/12 07:08:47;;;;;;;28.45;13.27;;;11.90;99.90;;;;;;4974502;28;20034;-76
2021/03/12 07:11:20;;;;;;;17.20;10.98;;;11.90;99.90;;;;;;4977220;28;20576;-77
2021/03/12 07:13:47;;;;;;;18.35;9.80;;;11.80;99.90;;;;;;4966354;28;20051;-76
2021/03/12 07:16:13;;;;;;;16.67;9.90;;;11.80;99.90;;;;;;4968999;28;20027;-77
2021/03/12 07:18:40;;;;;;;20.75;10.25;;;11.90;99.90;;;;;;4995433;28;20567;-76
2021/03/12 07:21:07;;;;;;;26.20;9.95;;;11.80;99.90;;;;;;4979137;28;20102;-76
2021/03/12 07:23:37;;;;;;;23.45;11.05;;;11.90;99.90;;;;;;4973952;28;20027;-77
2021/03/12 07:26:06;;;;;;;27.88;11.65;;;12.00;99.90;;;;;;4971554;28;20042;-77
2021/03/12 07:28:34;;;;;;;19.60;11.23;;;12.00;99.90;;;;;;4975112;28;20566;-77
2021/03/12 07:31:03;;;;;;;21.40;11.68;;;12.10;99.90;;;;;;4965661;28;20090;-77
2021/03/12 07:33:33;;;;;;;26.60;10.32;;;12.20;99.90;;;;;;4963918;28;20059;-76
2021/03/12 07:36:02;;;;;;;21.40;10.80;;;12.20;99.90;;;;;;4974196;28;20486;-77
2021/03/12 07:38:32;;;;;;;21.92;11.00;;;12.30;99.90;;;;;;4968484;28;20031;-77
2021/03/12 07:40:59;;;;;;;20.90;10.57;;;12.40;99.90;;;;;;4966876;28;20034;-77
2021/03/12 07:43:27;;;;;;;21.27;10.90;;;12.60;99.90;;;;;;4975644;28;20094;-77
2021/03/12 07:45:53;;;;;;;17.30;10.77;;;12.60;99.90;;;;;;4969438;28;20032;-77
2021/03/12 07:48:27;;;;;;;26.58;12.00;;;12.70;99.90;;;;;;4972625;28;20120;-77
2021/03/12 07:51:10;;;;;;;20.95;10.40;;;12.90;99.90;;;;;;4976905;28;20031;-75
2021/03/12 07:54:05;;;;;;;24.77;11.50;;;13.00;99.90;;;;;;4970726;28;20035;-76
2021/03/12 07:56:53;;;;;;;19.85;11.60;;;13.10;99.90;;;;;;4982086;28;20027;-77
2021/03/12 07:59:19;;;;;;;31.55;13.93;;;13.30;99.90;;;;;;4971428;28;20113;-76
2021/03/12 08:01:55;;;;;;;18.45;10.38;;;13.50;99.90;;;;;;4972882;28;20030;-77
2021/03/12 08:04:30;;;;;;;20.05;10.98;;;13.60;99.90;;;;;;4968466;28;20024;-77
2021/03/12 08:06:57;;;;;;;28.45;16.92;;;13.70;99.90;;;;;;4960495;28;20035;-77
2021/03/12 08:09:37;;;;;;;23.98;17.02;;;13.80;99.90;;;;;;4965466;28;20053;-76
2021/03/12 08:12:04;;;;;;;30.90;18.75;;;13.90;99.90;;;;;;4968669;28;20027;-77
2021/03/12 08:14:32;;;;;;;31.67;14.77;;;14.10;99.90;;;;;;4970487;28;20089;-76
2021/03/12 08:16:58;;;;;;;23.52;16.48;;;14.30;99.90;;;;;;4968660;28;20137;-77
2021/03/12 08:19:31;;;;;;;22.88;11.80;;;14.40;99.90;;;;;;4977072;28;20046;-79
2021/03/12 08:22:01;;;;;;;27.67;12.45;;;14.50;99.90;;;;;;4967909;28;20405;-75
2021/03/12 08:24:48;;;;;;;18.80;10.60;;;14.60;99.90;;;;;;4964115;28;20536;-77
2021/03/12 08:27:40;;;;;;;16.00;9.63;;;14.60;99.90;;;;;;4972208;28;20481;-77
2021/03/12 08:30:09;;;;;;;20.60;9.95;;;14.70;99.90;;;;;;4978121;28;20034;-78
2021/03/12 08:32:43;;;;;;;14.30;8.70;;;14.80;99.90;;;;;;4975910;28;20042;-76
2021/03/12 08:35:32;;;;;;;18.75;10.80;;;14.70;99.90;;;;;;4972087;28;20031;-77
2021/03/12 08:38:30;;;;;;;17.17;8.68;;;14.90;99.90;;;;;;4961833;28;20357;-76
2021/03/12 08:41:12;;;;;;;17.73;10.00;;;14.80;99.90;;;;;;4942061;28;20057;-76
2021/03/12 08:43:46;;;;;;;18.73;8.13;;;14.90;99.90;;;;;;4976003;28;20479;-77
2021/03/12 08:46:16;;;;;;;19.33;9.55;;;15.10;99.90;;;;;;4958849;28;20393;-77
2021/03/12 08:48:43;;;;;;;24.73;11.60;;;15.10;99.90;;;;;;4971573;28;20473;-77
2021/03/12 08:51:15;;;;;;;24.38;12.95;;;14.90;99.90;;;;;;4973011;28;20502;-76
2021/03/12 08:53:46;;;;;;;31.00;12.73;;;14.80;99.90;;;;;;4973630;28;20462;-77
2021/03/12 08:56:18;;;;;;;24.40;14.40;;;14.60;99.90;;;;;;4966387;28;20027;-76
2021/03/12 08:58:44;;;;;;;;;;;14.70;99.90;;;;;;4972681;28;20465;-77
2021/03/12 09:01:12;;;;;;;16.55;8.10;;;14.50;99.90;;;;;;4960993;28;19917;-77
2021/03/12 09:03:41;;;;;;;17.70;9.77;;;14.40;99.90;;;;;;4972779;28;20065;-77
2021/03/12 09:06:11;;;;;;;19.17;8.75;;;14.40;99.90;;;;;;4964498;28;20122;-77
2021/03/12 09:08:39;;;;;;;17.58;10.68;;;14.40;99.90;;;;;;4965085;28;20031;-77
2021/03/12 09:11:07;;;;;;;16.83;11.52;;;14.40;99.90;;;;;;4962215;28;20494;-77
2021/03/12 09:13:38;;;;;;;20.23;12.10;;;14.40;99.90;;;;;;4969513;28;20034;-76
2021/03/12 09:16:05;;;;;;;20.35;8.70;;;14.70;99.90;;;;;;4966244;28;20032;-76
2021/03/12 09:18:32;;;;;;;17.52;8.95;;;14.60;99.90;;;;;;4973811;28;20034;-75
2021/03/12 09:21:07;;;;;;;16.00;9.32;;;14.50;99.90;;;;;;4964396;28;20031;-76
2021/03/12 09:23:48;;;;;;;23.20;11.80;;;14.40;99.90;;;;;;4971189;28;20022;-76
2021/03/12 09:26:17;;;;;;;19.70;10.82;;;14.30;99.90;;;;;;4966301;28;20026;-75
2021/03/12 09:28:43;;;;;;;17.05;9.30;;;14.30;99.90;;;;;;4971620;28;20019;-76
2021/03/12 09:31:11;;;;;;;26.90;10.98;;;14.20;99.90;;;;;;4963395;28;20059;-76
2021/03/12 09:33:39;;;;;;;19.67;10.50;;;14.20;99.90;;;;;;4973877;28;20516;-76
2021/03/12 09:36:25;;;;;;;22.98;11.05;;;14.10;99.90;;;;;;4960666;28;20086;-76
2021/03/12 09:38:53;;;;;;;23.45;9.57;;;14.20;99.90;;;;;;4963345;28;20107;-76
2021/03/12 09:41:24;;;;;;;22.42;10.18;;;14.20;99.90;;;;;;4964578;28;20031;-76
2021/03/12 09:44:19;;;;;;;26.17;9.37;;;14.20;99.90;;;;;;4974855;28;20097;-75
2021/03/12 09:46:51;;;;;;;24.70;12.25;;;14.20;99.90;;;;;;4968688;28;20047;-76
2021/03/12 09:49:20;;;;;;;16.90;10.23;;;14.20;99.90;;;;;;4977402;28;20029;-76
2021/03/12 09:51:49;;;;;;;28.33;11.27;;;14.20;99.90;;;;;;4972975;28;20326;-76
2021/03/12 09:54:16;;;;;;;28.02;9.90;;;14.10;99.90;;;;;;4965138;28;20371;-75
2021/03/12 09:56:54;;;;;;;21.70;12.82;;;14.20;99.90;;;;;;4964972;28;20028;-75
2021/03/12 09:59:30;;;;;;;21.58;11.43;;;14.20;99.90;;;;;;4969834;28;20022;-75
2021/03/12 10:02:06;;;;;;;21.73;11.43;;;14.00;99.90;;;;;;4967582;28;20034;-75
2021/03/12 10:04:37;;;;;;;22.23;13.45;;;13.90;99.90;;;;;;4967969;28;20028;-75
2021/03/12 10:07:07;;;;;;;26.92;13.10;;;13.90;99.90;;;;;;4963804;28;20027;-75
2021/03/12 10:09:42;;;;;;;26.20;12.82;;;14.00;99.90;;;;;;4968892;28;20023;-75
2021/03/12 10:12:19;;;;;;;22.15;11.55;;;13.90;99.90;;;;;;4975565;28;20038;-76
2021/03/12 10:14:50;;;;;;;18.92;12.05;;;14.00;99.90;;;;;;4967234;28;20027;-76
2021/03/12 10:17:16;;;;;;;38.17;14.73;;;14.10;99.90;;;;;;4962776;28;20019;-75
2021/03/12 10:19:50;;;;;;;25.80;14.10;;;14.20;99.90;;;;;;4966061;28;20027;-76
2021/03/12 10:22:22;;;;;;;26.38;15.68;;;14.20;99.90;;;;;;4963752;28;20038;-76
2021/03/12 10:25:12;;;;;;;26.23;14.07;;;14.40;99.90;;;;;;4972809;28;20026;-74
2021/03/12 10:27:44;;;;;;;40.13;15.35;;;14.30;99.90;;;;;;4967621;28;20094;-75
2021/03/12 10:30:20;;;;;;;31.73;20.85;;;14.30;99.90;;;;;;4974983;28;20026;-75
2021/03/12 10:32:55;;;;;;;37.97;25.27;;;14.00;99.90;;;;;;4966383;28;20062;-74
2021/03/12 10:35:30;;;;;;;26.40;20.25;;;13.70;99.90;;;;;;4970283;28;20545;-75
2021/03/12 10:38:02;;;;;;;25.35;15.60;;;13.70;99.90;;;;;;4976818;28;20035;-75
2021/03/12 10:40:35;;;;;;;23.83;15.90;;;13.60;99.90;;;;;;4976591;28;20018;-74
2021/03/12 10:43:24;;;;;;;24.45;14.38;;;13.70;99.90;;;;;;4971164;28;20027;-74
2021/03/12 10:45:56;;;;;;;30.48;16.83;;;14.00;99.90;;;;;;4976186;28;20058;-75
2021/03/12 10:48:27;;;;;;;22.40;15.65;;;14.20;99.90;;;;;;4961764;28;20033;-74
2021/03/12 10:50:56;;;;;;;26.13;17.87;;;14.50;99.90;;;;;;4977317;28;20620;-73
2021/03/12 10:53:23;;;;;;;25.27;15.60;;;14.70;99.90;;;;;;4975270;28;20086;-74
2021/03/12 10:55:51;;;;;;;22.77;15.10;;;14.70;99.90;;;;;;4974571;28;20062;-74
2021/03/12 10:58:30;;;;;;;25.63;14.52;;;14.60;99.90;;;;;;4974456;28;20018;-74
2021/03/12 11:01:14;;;;;;;23.33;15.98;;;14.60;99.90;;;;;;4971917;28;20041;-74
2021/03/12 11:03:46;;;;;;;25.45;15.57;;;14.50;99.90;;;;;;4958266;28;20030;-74
2021/03/12 11:06:13;;;;;;;29.83;17.40;;;14.40;99.90;;;;;;4961890;28;20027;-73
2021/03/12 11:08:39;;;;;;;23.95;14.32;;;14.30;99.90;;;;;;4964240;28;20022;-74
2021/03/12 11:11:07;;;;;;;27.90;14.30;;;14.30;99.90;;;;;;4974016;28;20544;-73
2021/03/12 11:13:39;;;;;;;25.48;12.13;;;14.30;99.90;;;;;;4968243;28;20027;-74
2021/03/12 11:16:06;;;;;;;19.23;11.23;;;14.40;99.90;;;;;;4966446;28;20015;-74
2021/03/12 11:18:32;;;;;;;18.55;12.20;;;14.50;99.90;;;;;;4975296;28;20034;-73
2021/03/12 11:21:00;;;;;;;26.55;14.40;;;14.40;99.90;;;;;;4960179;28;20026;-74
2021/03/12 11:23:26;;;;;;;25.42;15.13;;;14.10;99.90;;;;;;4967688;28;20110;-74
2021/03/12 11:25:53;;;;;;;23.75;15.98;;;14.00;99.90;;;;;;4961230;28;20031;-74
2021/03/12 11:28:19;;;;;;;28.95;16.27;;;13.80;99.90;;;;;;4968335;28;20039;-73
2021/03/12 11:30:45;;;;;;;23.58;16.88;;;13.60;99.90;;;;;;4974262;28;20027;-73
2021/03/12 11:33:12;;;;;;;27.23;16.05;;;13.60;99.90;;;;;;4969521;28;20031;-74
2021/03/12 11:35:38;;;;;;;25.10;18.00;;;13.70;99.90;;;;;;4957213;28;20374;-75
2021/03/12 11:38:05;;;;;;;20.63;16.40;;;13.80;99.90;;;;;;4964272;28;20055;-74
2021/03/12 11:40:32;;;;;;;34.00;17.77;;;13.80;99.90;;;;;;4970030;28;20516;-73
2021/03/12 11:42:58;;;;;;;25.52;16.35;;;14.00;99.90;;;;;;4958702;28;20110;-74
2021/03/12 11:45:24;;;;;;;25.92;16.25;;;14.00;99.90;;;;;;4978332;28;20857;-73
2021/03/12 11:47:53;;;;;;;28.23;14.23;;;14.00;99.90;;;;;;4958300;28;20031;-73
2021/03/12 11:50:19;;;;;;;30.20;13.15;;;14.10;99.90;;;;;;4969357;28;20540;-74
2021/03/12 11:52:47;;;;;;;19.85;12.85;;;14.20;99.90;;;;;;4971337;28;20501;-77
2021/03/12 11:55:13;;;;;;;19.10;16.08;;;14.30;99.90;;;;;;4968485;28;20031;-73
2021/03/12 11:57:39;;;;;;;25.92;15.18;;;14.40;99.90;;;;;;4978321;28;20391;-73
2021/03/12 12:00:08;;;;;;;26.20;17.92;;;14.20;99.90;;;;;;4962649;28;20030;-73
2021/03/12 12:02:34;;;;;;;29.02;16.08;;;13.90;99.90;;;;;;4968043;28;20029;-73
2021/03/12 12:05:00;;;;;;;30.20;17.13;;;13.90;99.90;;;;;;4965405;28;20485;-73
2021/03/12 12:07:26;;;;;;;31.85;16.45;;;14.00;99.90;;;;;;4961786;28;20031;-74
2021/03/12 12:09:51;;;;;;;31.05;18.88;;;14.10;99.90;;;;;;4963507;28;20448;-74
2021/03/12 12:12:19;;;;;;;34.13;15.93;;;14.00;99.90;;;;;;4961248;28;20031;-73
2021/03/12 12:14:46;;;;;;;27.50;17.85;;;13.90;99.90;;;;;;4962153;28;20031;-73
2021/03/12 12:17:12;;;;;;;30.38;16.60;;;13.70;99.90;;;;;;4962590;28;20541;-73
2021/03/12 12:19:40;;;;;;;28.20;17.08;;;13.90;99.90;;;;;;4965652;28;20042;-73
2021/03/12 12:22:11;;;;;;;32.85;17.98;;;14.30;99.90;;;;;;4959123;28;20034;-74
2021/03/12 12:24:38;;;;;;;30.30;17.10;;;14.40;99.90;;;;;;4958194;28;20028;-73
2021/03/12 12:27:05;;;;;;;27.80;17.33;;;14.50;99.90;;;;;;4958396;28;20037;-73
2021/03/12 12:29:31;;;;;;;23.50;15.75;;;14.50;99.90;;;;;;4973723;28;20486;-73
2021/03/12 12:31:57;;;;;;;32.35;16.55;;;14.60;99.90;;;;;;4965351;28;20038;-73
2021/03/12 12:34:23;;;;;;;33.72;16.88;;;14.70;99.90;;;;;;4972880;28;20037;-75
2021/03/12 12:36:50;;;;;;;26.55;16.98;;;14.80;99.90;;;;;;4967971;28;20037;-73
2021/03/12 12:39:16;;;;;;;26.60;15.05;;;14.90;99.90;;;;;;4959650;28;20029;-75
2021/03/12 12:41:42;;;;;;;26.45;17.05;;;15.10;99.90;;;;;;4967824;28;20445;-73
2021/03/12 12:44:08;;;;;;;23.92;13.45;;;15.10;99.90;;;;;;4968594;28;20030;-73
2021/03/12 12:46:39;;;;;;;28.15;15.35;;;14.90;99.90;;;;;;4965453;28;20038;-73
2021/03/12 12:49:05;;;;;;;34.38;18.50;;;15.10;99.90;;;;;;4965429;28;20030;-73
2021/03/12 12:51:32;;;;;;;34.88;16.20;;;15.10;99.90;;;;;;4966824;28;20426;-73
2021/03/12 12:53:58;;;;;;;28.80;17.02;;;15.00;99.90;;;;;;4965848;28;20039;-73
2021/03/12 12:56:24;;;;;;;36.97;22.33;;;15.00;99.90;;;;;;4970025;28;20373;-73
2021/03/12 12:58:50;;;;;;;29.08;19.75;;;15.00;99.90;;;;;;4972079;28;20066;-73
2021/03/12 13:01:16;;;;;;;31.83;19.88;;;15.10;99.90;;;;;;4965354;28;20019;-74
2021/03/12 13:03:42;;;;;;;41.42;27.33;;;15.00;99.90;;;;;;4971920;28;20019;-73